Time;durP1;ratioP1;P1;durP2;ratioP2;P2;SDS_P1;SDS_P2;PMS_P1;PMS_P2;Temp;Humidity;BMP_temperature;BMP_pressure;BME280_temperature;BME280_humidity;BME280_pressure;Samples;Min_cycle;Max_cycle;Signal;HPM_P1;HPM_P2
2021/07/10 00:00:16;;;;;;;25.38;19.52;;;;;;;;;;5095750;28;20051;-63
2021/07/10 00:03:02;;;;;;;21.95;19.17;;;;;;;;;;5092577;28;20063;-62
2021/07/10 00:05:47;;;;;;;27.77;19.95;;;;;;;;;;5083790;28;20047;-63
2021/07/10 00:08:32;;;;;;;28.67;20.13;;;;;;;;;;5092684;28;20582;-62
2021/07/10 00:11:18;;;;;;;22.30;18.90;;;;;;;;;;5095375;28;20124;-62
2021/07/10 00:14:03;;;;;;;24.38;18.33;;;;;;;;;;5092303;28;20489;-62
2021/07/10 00:16:49;;;;;;;26.65;19.40;;;;;;;;;;5107091;28;20044;-62
2021/07/10 00:19:34;;;;;;;41.13;26.55;;;;;;;;;;5094960;28;20048;-62
2021/07/10 00:22:20;;;;;;;33.63;23.35;;;;;;;;;;5093397;28;20051;-62
2021/07/10 00:25:06;;;;;;;40.75;25.40;;;;;;;;;;5108468;28;20062;-63
2021/07/10 00:27:52;;;;;;;30.58;22.02;;;;;;;;;;5093182;28;20406;-63
2021/07/10 00:30:37;;;;;;;27.52;21.67;;;;;;;;;;5094027;28;20524;-62
2021/07/10 00:33:22;;;;;;;42.28;27.02;;;;;;;;;;5095233;28;20086;-62
2021/07/10 00:36:08;;;;;;;44.03;28.58;;;;;;;;;;5093096;28;20039;-63
2021/07/10 00:38:53;;;;;;;41.78;26.38;;;;;;;;;;5095016;28;20040;-63
2021/07/10 00:41:38;;;;;;;26.05;21.17;;;;;;;;;;5093038;28;20111;-63
2021/07/10 00:44:24;;;;;;;28.30;20.25;;;;;;;;;;5094817;28;20516;-63
2021/07/10 00:47:09;;;;;;;31.10;20.23;;;;;;;;;;5094870;28;20048;-63
2021/07/10 00:49:55;;;;;;;26.73;19.80;;;;;;;;;;5094803;28;20117;-63
2021/07/10 00:52:40;;;;;;;36.35;23.52;;;;;;;;;;5093716;28;20051;-63
2021/07/10 00:55:25;;;;;;;32.55;21.73;;;;;;;;;;5094647;28;20047;-63
2021/07/10 00:58:11;;;;;;;37.88;22.23;;;;;;;;;;5094940;28;20086;-63
2021/07/10 01:00:56;;;;;;;32.47;20.83;;;;;;;;;;5107640;28;20047;-63
2021/07/10 01:03:44;;;;;;;41.75;26.65;;;;;;;;;;5092664;28;20051;-63
2021/07/10 01:06:30;;;;;;;43.45;24.90;;;;;;;;;;5094666;28;20130;-63
2021/07/10 01:09:15;;;;;;;36.08;24.13;;;;;;;;;;5093540;28;20046;-63
2021/07/10 01:12:00;;;;;;;27.95;20.95;;;;;;;;;;5093839;28;20125;-63
2021/07/10 01:14:46;;;;;;;31.70;22.65;;;;;;;;;;5074068;28;20486;-63
2021/07/10 01:17:31;;;;;;;38.28;25.85;;;;;;;;;;5073952;28;20048;-63
2021/07/10 01:20:18;;;;;;;33.70;23.42;;;;;;;;;;5073712;28;20044;-63
2021/07/10 01:23:03;;;;;;;41.05;25.08;;;;;;;;;;5078909;28;20040;-63
2021/07/10 01:25:48;;;;;;;39.45;25.55;;;;;;;;;;5094073;28;20173;-63
2021/07/10 01:28:34;;;;;;;54.38;23.98;;;;;;;;;;5090019;28;20398;-63
2021/07/10 01:31:19;;;;;;;322.60;31.00;;;;;;;;;;5073554;28;20141;-63
2021/07/10 01:34:05;;;;;;;79.35;28.45;;;;;;;;;;5084401;28;20047;-63
2021/07/10 01:36:50;;;;;;;56.55;28.83;;;;;;;;;;5093901;28;20446;-63
2021/07/10 01:39:37;;;;;;;42.35;26.58;;;;;;;;;;5078222;28;20050;-63
2021/07/10 01:42:22;;;;;;;44.90;25.95;;;;;;;;;;5093612;28;20051;-63
2021/07/10 01:45:08;;;;;;;46.42;22.02;;;;;;;;;;5092738;28;20048;-63
2021/07/10 01:47:53;;;;;;;35.45;19.65;;;;;;;;;;5092939;28;20509;-63
2021/07/10 01:50:39;;;;;;;48.97;25.52;;;;;;;;;;5092998;28;20563;-63
2021/07/10 01:53:24;;;;;;;57.50;27.27;;;;;;;;;;5092743;28;20051;-63
2021/07/10 01:56:09;;;;;;;57.95;30.30;;;;;;;;;;5084876;28;20051;-63
2021/07/10 01:58:55;;;;;;;51.97;29.98;;;;;;;;;;5093723;28;20055;-63
2021/07/10 02:01:40;;;;;;;41.03;24.63;;;;;;;;;;5092998;28;20058;-63
2021/07/10 02:04:26;;;;;;;33.17;22.42;;;;;;;;;;5092420;28;20490;-63
2021/07/10 02:07:11;;;;;;;37.58;24.45;;;;;;;;;;5093265;28;20048;-63
2021/07/10 02:09:56;;;;;;;83.45;23.70;;;;;;;;;;5092937;28;20051;-63
2021/07/10 02:12:43;;;;;;;31.27;21.10;;;;;;;;;;5093011;28;20040;-63
2021/07/10 02:15:28;;;;;;;40.20;23.33;;;;;;;;;;5090387;28;20113;-63
2021/07/10 02:18:14;;;;;;;42.13;25.25;;;;;;;;;;5092974;28;20044;-63
2021/07/10 02:20:59;;;;;;;257.83;34.97;;;;;;;;;;5091796;28;20509;-63
2021/07/10 02:23:44;;;;;;;401.48;34.72;;;;;;;;;;5091970;28;20044;-63
2021/07/10 02:26:30;;;;;;;94.50;25.13;;;;;;;;;;5092088;28;20052;-63
2021/07/10 02:29:16;;;;;;;72.03;21.85;;;;;;;;;;5092887;28;20051;-63
2021/07/10 02:32:01;;;;;;;237.50;31.13;;;;;;;;;;5091950;28;20048;-63
2021/07/10 02:34:46;;;;;;;95.32;34.45;;;;;;;;;;5092784;28;20504;-63
2021/07/10 02:37:32;;;;;;;65.65;31.25;;;;;;;;;;5072480;28;20063;-63
2021/07/10 02:40:18;;;;;;;85.07;35.70;;;;;;;;;;5072175;28;20044;-63
2021/07/10 02:43:03;;;;;;;58.65;28.45;;;;;;;;;;5072172;28;20047;-63
2021/07/10 02:45:49;;;;;;;45.65;26.30;;;;;;;;;;5077418;28;20386;-63
2021/07/10 02:48:35;;;;;;;46.67;27.38;;;;;;;;;;5092523;28;20044;-63
2021/07/10 02:51:20;;;;;;;76.45;27.63;;;;;;;;;;5092205;28;20051;-63
2021/07/10 02:54:06;;;;;;;69.88;26.73;;;;;;;;;;5091344;28;20055;-63
2021/07/10 02:56:51;;;;;;;63.80;31.48;;;;;;;;;;5090763;28;20383;-63
2021/07/10 02:59:36;;;;;;;51.00;28.10;;;;;;;;;;5091073;28;20055;-63
2021/07/10 03:02:22;;;;;;;65.10;34.70;;;;;;;;;;5090989;28;20506;-63
2021/07/10 03:05:07;;;;;;;55.53;32.35;;;;;;;;;;5092347;28;20512;-63
2021/07/10 03:07:53;;;;;;;75.03;38.10;;;;;;;;;;5091378;28;20054;-63
2021/07/10 03:10:40;;;;;;;75.63;36.47;;;;;;;;;;5092146;28;20051;-63
2021/07/10 03:13:26;;;;;;;88.60;39.72;;;;;;;;;;5090648;28;20051;-63
2021/07/10 03:16:11;;;;;;;89.32;40.13;;;;;;;;;;5092362;28;20097;-63
2021/07/10 03:18:57;;;;;;;89.88;38.35;;;;;;;;;;5092125;28;20047;-63
2021/07/10 03:21:43;;;;;;;79.15;35.38;;;;;;;;;;5091980;28;20059;-63
2021/07/10 03:24:28;;;;;;;68.25;35.78;;;;;;;;;;5071792;28;20117;-63
2021/07/10 03:27:13;;;;;;;69.50;31.10;;;;;;;;;;5071871;28;20048;-63
2021/07/10 03:29:59;;;;;;;61.42;26.95;;;;;;;;;;5071686;28;20133;-63
2021/07/10 03:32:44;;;;;;;84.95;30.13;;;;;;;;;;5080394;28;20032;-63
2021/07/10 03:35:29;;;;;;;51.75;27.25;;;;;;;;;;5095100;28;20051;-63
2021/07/10 03:38:14;;;;;;;60.65;28.60;;;;;;;;;;5084894;28;20051;-63
2021/07/10 03:40:59;;;;;;;54.95;27.58;;;;;;;;;;5095787;28;20052;-63
2021/07/10 03:43:45;;;;;;;57.28;29.80;;;;;;;;;;5094821;28;20133;-62
2021/07/10 03:46:30;;;;;;;64.50;32.67;;;;;;;;;;5078019;22;20048;-63
2021/07/10 03:49:15;;;;;;;70.38;32.35;;;;;;;;;;5068597;28;20045;-64
2021/07/10 03:52:00;;;;;;;62.63;30.60;;;;;;;;;;5055414;28;20120;-64
2021/07/10 03:54:46;;;;;;;62.47;29.83;;;;;;;;;;5070447;28;20502;-63
2021/07/10 03:57:31;;;;;;;49.17;26.90;;;;;;;;;;5074225;28;20046;-64
2021/07/10 04:00:18;;;;;;;59.97;29.45;;;;;;;;;;5075308;28;20055;-64
2021/07/10 04:03:04;;;;;;;58.13;30.48;;;;;;;;;;5075577;28;20053;-63
2021/07/10 04:05:49;;;;;;;48.15;24.73;;;;;;;;;;5075479;28;20055;-63
2021/07/10 04:08:37;;;;;;;126.80;27.27;;;;;;;;;;5075082;28;20429;-63
2021/07/10 04:11:22;;;;;;;98.78;26.67;;;;;;;;;;5075027;28;20040;-64
2021/07/10 04:14:07;;;;;;;54.17;25.55;;;;;;;;;;5072566;28;20047;-63
2021/07/10 04:16:53;;;;;;;36.05;22.67;;;;;;;;;;5071908;28;20487;-63
2021/07/10 04:19:38;;;;;;;37.63;24.02;;;;;;;;;;5074943;28;20563;-63
2021/07/10 04:22:24;;;;;;;42.42;24.40;;;;;;;;;;5075105;28;20045;-63
2021/07/10 04:25:12;;;;;;;39.95;24.83;;;;;;;;;;5073241;28;20054;-63
2021/07/10 04:27:58;;;;;;;59.40;30.25;;;;;;;;;;5074937;28;20127;-63
2021/07/10 04:30:44;;;;;;;43.30;25.30;;;;;;;;;;5074683;28;20116;-63
2021/07/10 04:33:29;;;;;;;46.05;25.60;;;;;;;;;;5074749;28;20123;-63
2021/07/10 04:36:15;;;;;;;48.45;25.95;;;;;;;;;;5073198;28;20120;-63
2021/07/10 04:39:00;;;;;;;42.33;25.95;;;;;;;;;;5074735;28;20592;-63
2021/07/10 04:41:45;;;;;;;38.20;24.83;;;;;;;;;;5074343;28;20051;-63
2021/07/10 04:44:31;;;;;;;42.38;26.15;;;;;;;;;;5074199;28;20060;-63
2021/07/10 04:47:16;;;;;;;43.17;27.85;;;;;;;;;;5034784;28;20535;-63
2021/07/10 04:50:02;;;;;;;72.22;36.38;;;;;;;;;;5034453;28;20052;-63
2021/07/10 04:52:47;;;;;;;61.15;34.55;;;;;;;;;;5034744;28;20072;-63
2021/07/10 04:55:33;;;;;;;68.55;34.55;;;;;;;;;;5042134;28;20070;-63
2021/07/10 04:58:18;;;;;;;53.70;32.22;;;;;;;;;;5074435;28;20131;-63
2021/07/10 05:01:03;;;;;;;56.08;33.90;;;;;;;;;;5074176;28;20056;-64
2021/07/10 05:03:49;;;;;;;44.45;29.65;;;;;;;;;;5074230;28;20041;-65
2021/07/10 05:06:34;;;;;;;46.33;29.48;;;;;;;;;;5071485;28;20056;-65
2021/07/10 05:09:20;;;;;;;54.15;31.85;;;;;;;;;;5074234;28;20064;-64
2021/07/10 05:12:06;;;;;;;62.22;35.40;;;;;;;;;;5074383;28;20055;-64
2021/07/10 05:14:51;;;;;;;62.45;36.35;;;;;;;;;;5074125;28;20046;-64
2021/07/10 05:17:36;;;;;;;53.45;36.58;;;;;;;;;;5072678;28;20052;-64
2021/07/10 05:20:22;;;;;;;48.88;33.72;;;;;;;;;;5073904;28;20098;-64
2021/07/10 05:23:08;;;;;;;51.35;36.40;;;;;;;;;;5067508;28;20487;-64
2021/07/10 05:25:53;;;;;;;52.22;36.10;;;;;;;;;;5051107;28;20163;-64
2021/07/10 05:28:38;;;;;;;45.35;33.05;;;;;;;;;;5051561;28;20044;-64
2021/07/10 05:31:24;;;;;;;42.30;30.80;;;;;;;;;;5053886;28;20200;-63
2021/07/10 05:34:09;;;;;;;41.75;32.63;;;;;;;;;;5053685;28;20067;-64
2021/07/10 05:36:55;;;;;;;47.30;33.70;;;;;;;;;;5052783;28;20449;-64
2021/07/10 05:39:42;;;;;;;47.38;35.70;;;;;;;;;;5053362;28;20052;-64
2021/07/10 05:42:27;;;;;;;44.28;33.60;;;;;;;;;;5056689;28;20127;-64
2021/07/10 05:45:13;;;;;;;41.08;32.08;;;;;;;;;;5052554;28;20033;-64
2021/07/10 05:47:58;;;;;;;36.55;29.73;;;;;;;;;;5052663;28;20186;-64
2021/07/10 05:50:43;;;;;;;37.67;29.60;;;;;;;;;;5053134;28;20524;-64
2021/07/10 05:53:29;;;;;;;36.33;28.77;;;;;;;;;;5053024;28;20072;-64
2021/07/10 05:56:14;;;;;;;35.17;28.40;;;;;;;;;;5053361;28;20107;-64
2021/07/10 05:59:00;;;;;;;33.00;27.00;;;;;;;;;;5061732;28;20504;-64
2021/07/10 06:01:45;;;;;;;31.92;28.52;;;;;;;;;;5065363;28;20106;-64
2021/07/10 06:04:31;;;;;;;36.03;29.27;;;;;;;;;;5058818;28;20041;-64
2021/07/10 06:07:16;;;;;;;36.03;29.27;;;;;;;;;;5050271;28;20784;-64
2021/07/10 06:10:02;;;;;;;39.30;31.20;;;;;;;;;;5033917;28;20565;-64
2021/07/10 06:12:47;;;;;;;41.20;32.35;;;;;;;;;;5033070;28;20496;-64
2021/07/10 06:15:32;;;;;;;38.50;29.52;;;;;;;;;;5040298;28;20036;-65
2021/07/10 06:18:18;;;;;;;40.13;29.85;;;;;;;;;;5072964;28;20045;-65
2021/07/10 06:21:04;;;;;;;36.25;29.98;;;;;;;;;;5072619;28;20049;-65
2021/07/10 06:23:49;;;;;;;39.97;32.78;;;;;;;;;;5072837;28;20055;-65
2021/07/10 06:26:35;;;;;;;35.88;31.65;;;;;;;;;;5071015;28;20041;-65
2021/07/10 06:29:20;;;;;;;40.88;33.80;;;;;;;;;;5072527;28;20118;-65
2021/07/10 06:32:07;;;;;;;38.08;33.00;;;;;;;;;;5072574;28;20094;-65
2021/07/10 06:34:52;;;;;;;37.03;32.15;;;;;;;;;;5072353;28;20487;-65
2021/07/10 06:37:38;;;;;;;36.65;31.90;;;;;;;;;;5070912;28;20418;-65
2021/07/10 06:40:23;;;;;;;33.90;30.17;;;;;;;;;;5072231;28;20058;-64
2021/07/10 06:43:08;;;;;;;37.67;30.30;;;;;;;;;;5072495;28;20492;-64
2021/07/10 06:45:54;;;;;;;35.47;31.67;;;;;;;;;;5066462;28;20048;-65
2021/07/10 06:48:39;;;;;;;34.00;29.52;;;;;;;;;;5072006;28;20636;-64
2021/07/10 06:51:24;;;;;;;33.67;29.98;;;;;;;;;;5055010;28;20049;-65
2021/07/10 06:54:10;;;;;;;34.50;29.98;;;;;;;;;;5049817;28;20049;-64
2021/07/10 06:56:56;;;;;;;34.53;29.98;;;;;;;;;;5064201;28;20053;-65
2021/07/10 06:59:41;;;;;;;35.60;31.70;;;;;;;;;;5071866;28;20049;-65
2021/07/10 07:02:26;;;;;;;34.30;30.58;;;;;;;;;;5067746;28;20051;-65
2021/07/10 07:05:12;;;;;;;34.95;30.63;;;;;;;;;;5071674;28;20049;-65
2021/07/10 07:07:57;;;;;;;37.15;30.63;;;;;;;;;;5065689;28;20129;-64
2021/07/10 07:10:43;;;;;;;35.40;29.88;;;;;;;;;;5071678;28;20040;-64
2021/07/10 07:13:28;;;;;;;35.67;28.20;;;;;;;;;;5071991;28;20411;-64
2021/07/10 07:16:14;;;;;;;33.13;29.45;;;;;;;;;;5069811;28;20254;-64
2021/07/10 07:18:59;;;;;;;35.88;29.40;;;;;;;;;;5072133;28;20055;-64
2021/07/10 07:21:45;;;;;;;31.02;26.85;;;;;;;;;;5071918;28;20052;-64
2021/07/10 07:24:30;;;;;;;42.33;29.35;;;;;;;;;;5071782;28;20037;-64
2021/07/10 07:27:16;;;;;;;35.22;28.67;;;;;;;;;;5069632;28;20052;-64
2021/07/10 07:30:01;;;;;;;37.10;30.20;;;;;;;;;;5071714;28;20052;-64
2021/07/10 07:32:47;;;;;;;40.05;31.05;;;;;;;;;;5071801;28;20040;-64
2021/07/10 07:35:32;;;;;;;36.25;29.13;;;;;;;;;;5071759;28;20087;-64
2021/07/10 07:38:18;;;;;;;38.13;28.95;;;;;;;;;;5068519;28;20082;-64
2021/07/10 07:41:03;;;;;;;33.78;27.17;;;;;;;;;;5071708;28;20126;-64
2021/07/10 07:43:48;;;;;;;41.58;27.65;;;;;;;;;;5071765;28;20051;-64
2021/07/10 07:46:34;;;;;;;34.60;27.95;;;;;;;;;;5071549;28;20044;-64
2021/07/10 07:49:19;;;;;;;34.83;28.75;;;;;;;;;;5068069;28;20098;-65
2021/07/10 07:52:05;;;;;;;38.83;29.50;;;;;;;;;;5066119;28;20049;-64
2021/07/10 07:54:50;;;;;;;33.30;27.48;;;;;;;;;;5051502;28;20045;-63
2021/07/10 07:57:35;;;;;;;32.90;27.35;;;;;;;;;;5039009;28;20050;-64
2021/07/10 08:00:22;;;;;;;25.75;19.27;;;;;;;;;;5046151;28;20048;-64
2021/07/10 08:03:08;;;;;;;30.73;24.55;;;;;;;;;;5071859;28;20479;-65
2021/07/10 08:05:53;;;;;;;31.85;25.58;;;;;;;;;;5071507;28;20072;-65
2021/07/10 08:08:39;;;;;;;31.65;26.77;;;;;;;;;;5055406;28;20069;-64
2021/07/10 08:11:25;;;;;;;32.60;25.63;;;;;;;;;;5069647;28;20059;-64
2021/07/10 08:14:10;;;;;;;31.02;25.17;;;;;;;;;;5071435;28;20059;-65
2021/07/10 08:16:56;;;;;;;30.75;24.77;;;;;;;;;;5072341;28;20048;-65
2021/07/10 08:19:41;;;;;;;28.42;22.83;;;;;;;;;;5071568;28;20048;-65
2021/07/10 08:22:27;;;;;;;29.85;24.65;;;;;;;;;;5073576;28;20094;-65
2021/07/10 08:25:12;;;;;;;28.77;23.95;;;;;;;;;;5074927;28;20068;-65
2021/07/10 08:27:58;;;;;;;24.80;19.90;;;;;;;;;;5075160;28;20054;-64
2021/07/10 08:30:43;;;;;;;23.83;19.92;;;;;;;;;;5034656;28;20419;-64
2021/07/10 08:33:28;;;;;;;23.90;20.73;;;;;;;;;;5034962;28;20045;-64
2021/07/10 08:36:14;;;;;;;28.02;21.77;;;;;;;;;;5034792;28;20048;-64
2021/07/10 08:38:59;;;;;;;24.85;22.08;;;;;;;;;;5034758;28;20062;-63
2021/07/10 08:41:47;;;;;;;29.73;24.77;;;;;;;;;;5072687;28;20178;-64
2021/07/10 08:44:34;;;;;;;27.98;24.73;;;;;;;;;;5074604;28;20047;-64
2021/07/10 08:47:20;;;;;;;30.88;25.52;;;;;;;;;;5074676;28;20055;-64
2021/07/10 08:50:06;;;;;;;29.90;25.98;;;;;;;;;;5072349;28;20049;-64
2021/07/10 08:52:52;;;;;;;30.17;25.13;;;;;;;;;;5074670;28;20051;-64
2021/07/10 08:55:37;;;;;;;30.75;26.52;;;;;;;;;;5074419;28;20498;-64
2021/07/10 08:58:22;;;;;;;30.17;26.17;;;;;;;;;;5074562;28;20154;-64
2021/07/10 09:01:08;;;;;;;32.88;26.48;;;;;;;;;;5072687;28;20128;-64
2021/07/10 09:03:53;;;;;;;31.77;27.08;;;;;;;;;;5074386;28;20060;-64
2021/07/10 09:06:39;;;;;;;30.30;24.90;;;;;;;;;;5074154;28;20047;-64
2021/07/10 09:09:43;;;;;;;31.15;26.30;;;;;;;;;;5074023;28;20505;-64
2021/07/10 09:12:31;;;;;;;30.30;25.50;;;;;;;;;;5034109;28;20385;-64
2021/07/10 09:15:17;;;;;;;29.17;26.00;;;;;;;;;;5034311;28;20202;-64
2021/07/10 09:18:03;;;;;;;34.78;26.13;;;;;;;;;;5034194;28;20073;-64
2021/07/10 09:20:48;;;;;;;30.52;26.80;;;;;;;;;;5047286;28;20059;-64
2021/07/10 09:23:39;;;;;;;29.92;26.45;;;;;;;;;;5074228;28;20122;-64
2021/07/10 09:26:26;;;;;;;27.83;24.02;;;;;;;;;;5073894;28;20129;-64
2021/07/10 09:29:15;;;;;;;27.17;23.73;;;;;;;;;;5073253;28;20048;-64
2021/07/10 09:32:01;;;;;;;27.33;24.33;;;;;;;;;;5070352;28;20685;-64
2021/07/10 09:34:48;;;;;;;28.90;24.33;;;;;;;;;;5073715;28;20514;-64
2021/07/10 09:37:34;;;;;;;24.85;21.95;;;;;;;;;;5073692;28;20513;-64
2021/07/10 09:40:19;;;;;;;28.63;23.23;;;;;;;;;;5073601;28;20076;-64
2021/07/10 09:43:05;;;;;;;27.30;23.70;;;;;;;;;;5071502;28;20139;-64
2021/07/10 09:45:50;;;;;;;56.72;23.40;;;;;;;;;;5112509;22;20373;-65
2021/07/10 09:48:36;;;;;;;26.75;22.88;;;;;;;;;;5114199;28;20044;-65
2021/07/10 09:51:25;;;;;;;25.52;20.80;;;;;;;;;;5112202;28;20058;-65
2021/07/10 09:54:11;;;;;;;26.13;21.55;;;;;;;;;;5093191;28;20127;-65
2021/07/10 09:57:03;;;;;;;24.73;21.40;;;;;;;;;;5096304;28;20084;-65
2021/07/10 09:59:52;;;;;;;21.63;19.42;;;;;;;;;;5092436;28;20048;-65
2021/07/10 10:02:44;;;;;;;22.05;18.95;;;;;;;;;;5109201;28;20043;-65
2021/07/10 10:05:30;;;;;;;24.65;21.77;;;;;;;;;;5104050;28;20055;-64
2021/07/10 10:08:15;;;;;;;24.88;21.65;;;;;;;;;;5103279;28;20055;-64
2021/07/10 10:11:00;;;;;;;24.67;21.60;;;;;;;;;;5091502;28;20048;-65
2021/07/10 10:13:45;;;;;;;35.28;20.50;;;;;;;;;;5093371;28;20093;-65
2021/07/10 10:16:31;;;;;;;23.30;20.77;;;;;;;;;;5095604;28;20042;-65
2021/07/10 10:19:17;;;;;;;21.52;18.38;;;;;;;;;;5113279;28;20066;-65
2021/07/10 10:22:03;;;;;;;21.75;17.67;;;;;;;;;;5113177;28;20053;-65
2021/07/10 10:24:50;;;;;;;21.65;18.05;;;;;;;;;;5113261;28;20092;-65
2021/07/10 10:27:35;;;;;;;20.95;18.55;;;;;;;;;;5112161;28;20058;-65
2021/07/10 10:30:21;;;;;;;22.92;18.98;;;;;;;;;;5111929;28;20040;-64
2021/07/10 10:33:06;;;;;;;21.67;18.63;;;;;;;;;;5112765;28;20039;-65
2021/07/10 10:35:53;;;;;;;23.15;18.42;;;;;;;;;;5112036;28;20043;-64
2021/07/10 10:38:38;;;;;;;21.42;18.67;;;;;;;;;;5109819;28;20047;-65
2021/07/10 10:41:24;;;;;;;23.35;20.85;;;;;;;;;;5107538;28;20050;-65
2021/07/10 10:44:10;;;;;;;29.38;24.50;;;;;;;;;;5100680;28;20416;-65
2021/07/10 10:46:56;;;;;;;21.95;19.58;;;;;;;;;;5092239;28;20058;-64
2021/07/10 10:49:42;;;;;;;21.40;18.98;;;;;;;;;;5091903;28;20486;-64
2021/07/10 10:52:29;;;;;;;23.38;19.65;;;;;;;;;;5092017;28;20043;-64
2021/07/10 10:55:20;;;;;;;20.90;17.90;;;;;;;;;;5091769;28;20064;-64
2021/07/10 10:58:11;;;;;;;20.98;18.33;;;;;;;;;;5112534;28;20044;-65
2021/07/10 11:01:00;;;;;;;24.08;16.98;;;;;;;;;;5104658;28;20051;-65
2021/07/10 11:03:45;;;;;;;20.67;17.20;;;;;;;;;;5092106;28;20426;-62
2021/07/10 11:06:31;;;;;;;22.02;17.35;;;;;;;;;;5091748;28;20036;-63
2021/07/10 11:09:17;;;;;;;19.73;17.58;;;;;;;;;;5091392;28;20059;-62
2021/07/10 11:12:02;;;;;;;21.42;18.42;;;;;;;;;;5092227;28;20051;-63
2021/07/10 11:14:47;;;;;;;20.20;17.58;;;;;;;;;;5091944;28;20136;-62
2021/07/10 11:17:39;;;;;;;22.27;18.40;;;;;;;;;;5104288;28;20061;-62
2021/07/10 11:20:43;;;;;;;21.27;17.08;;;;;;;;;;5108740;28;20051;-63
2021/07/10 11:23:30;;;;;;;19.17;16.30;;;;;;;;;;5092175;28;20059;-63
2021/07/10 11:26:17;;;;;;;19.48;16.58;;;;;;;;;;5091636;28;20101;-62
2021/07/10 11:29:02;;;;;;;21.55;16.48;;;;;;;;;;5091724;28;20089;-63
2021/07/10 11:31:47;;;;;;;18.10;16.15;;;;;;;;;;5091911;28;20078;-63
2021/07/10 11:34:34;;;;;;;19.65;16.63;;;;;;;;;;5091767;28;20063;-63
2021/07/10 11:37:20;;;;;;;19.88;16.83;;;;;;;;;;5091716;28;20626;-62
2021/07/10 11:40:06;;;;;;;21.27;16.38;;;;;;;;;;5091506;28;20052;-63
2021/07/10 11:42:51;;;;;;;16.15;14.15;;;;;;;;;;5106860;28;20197;-64
2021/07/10 11:45:37;;;;;;;17.15;15.43;;;;;;;;;;5111992;28;20193;-63
2021/07/10 11:48:23;;;;;;;19.95;14.73;;;;;;;;;;5111940;28;20130;-63
2021/07/10 11:51:09;;;;;;;17.30;15.60;;;;;;;;;;5111508;28;20128;-63
2021/07/10 11:53:57;;;;;;;17.40;15.48;;;;;;;;;;5116048;28;20051;-64
2021/07/10 11:56:43;;;;;;;18.45;14.73;;;;;;;;;;5115884;28;20071;-63
2021/07/10 11:59:28;;;;;;;18.85;16.88;;;;;;;;;;5115436;28;20066;-64
2021/07/10 12:02:20;;;;;;;17.80;15.95;;;;;;;;;;5114478;28;20044;-63
2021/07/10 12:05:07;;;;;;;15.93;14.32;;;;;;;;;;5115608;28;20043;-63
2021/07/10 12:07:52;;;;;;;13.90;12.43;;;;;;;;;;5115533;28;20044;-63
2021/07/10 12:10:39;;;;;;;15.07;13.48;;;;;;;;;;5115319;28;20054;-64
2021/07/10 12:13:27;;;;;;;15.82;13.70;;;;;;;;;;5113366;28;20044;-65
2021/07/10 12:16:12;;;;;;;14.65;13.13;;;;;;;;;;5115669;28;20549;-64
2021/07/10 12:18:57;;;;;;;15.15;13.65;;;;;;;;;;5115406;28;20566;-64
2021/07/10 12:21:43;;;;;;;15.43;13.50;;;;;;;;;;5113912;28;20172;-65
2021/07/10 12:24:28;;;;;;;14.13;12.63;;;;;;;;;;5113803;28;20042;-65
2021/07/10 12:27:15;;;;;;;16.13;13.77;;;;;;;;;;5115604;28;20113;-64
2021/07/10 12:30:00;;;;;;;16.13;12.45;;;;;;;;;;5115244;28;20047;-64
2021/07/10 12:32:46;;;;;;;17.90;11.65;;;;;;;;;;5114147;28;20093;-64
2021/07/10 12:35:31;;;;;;;12.88;11.60;;;;;;;;;;5104796;28;20047;-64
2021/07/10 12:38:16;;;;;;;13.27;11.60;;;;;;;;;;5094814;28;20048;-65
2021/07/10 12:41:21;;;;;;;13.50;12.00;;;;;;;;;;5094440;28;20047;-64
2021/07/10 12:44:11;;;;;;;14.20;12.77;;;;;;;;;;5096456;28;20073;-64
2021/07/10 12:46:58;;;;;;;12.50;11.05;;;;;;;;;;5094740;28;20075;-64
2021/07/10 12:49:43;;;;;;;15.23;11.27;;;;;;;;;;5094416;28;20048;-64
2021/07/10 12:52:29;;;;;;;13.32;12.02;;;;;;;;;;5102417;28;20387;-64
2021/07/10 12:55:22;;;;;;;13.15;11.88;;;;;;;;;;5114985;28;20439;-65
2021/07/10 12:58:08;;;;;;;12.52;11.23;;;;;;;;;;5115174;28;20963;-65
2021/07/10 13:00:53;;;;;;;14.05;12.18;;;;;;;;;;5106179;28;20513;-64
2021/07/10 13:03:38;;;;;;;11.82;10.70;;;;;;;;;;5092366;28;20055;-64
2021/07/10 13:06:24;;;;;;;12.90;11.20;;;;;;;;;;5093504;28;20062;-65
2021/07/10 13:09:09;;;;;;;12.18;10.98;;;;;;;;;;5094297;28;20536;-65
2021/07/10 13:11:55;;;;;;;15.10;13.50;;;;;;;;;;5107106;28;20035;-64
2021/07/10 13:14:40;;;;;;;14.93;11.82;;;;;;;;;;5114478;28;20051;-65
2021/07/10 13:17:26;;;;;;;14.05;12.55;;;;;;;;;;5114787;28;20493;-65
2021/07/10 13:20:32;;;;;;;14.57;13.18;;;;;;;;;;5114335;28;20058;-65
2021/07/10 13:23:36;;;;;;;13.35;12.02;;;;;;;;;;5094464;28;20059;-65
2021/07/10 13:26:28;;;;;;;12.75;11.13;;;;;;;;;;5092948;28;20071;-65
2021/07/10 13:29:18;;;;;;;11.85;10.65;;;;;;;;;;5094159;28;20056;-64
2021/07/10 13:32:04;;;;;;;13.50;12.02;;;;;;;;;;5101924;28;20036;-64
2021/07/10 13:34:50;;;;;;;14.02;11.50;;;;;;;;;;5114268;28;20127;-64
2021/07/10 13:37:36;;;;;;;13.50;12.20;;;;;;;;;;5114094;28;20049;-65
2021/07/10 13:40:24;;;;;;;11.88;10.68;;;;;;;;;;5114049;28;20053;-64
2021/07/10 13:43:09;;;;;;;14.57;13.15;;;;;;;;;;5112647;28;20047;-65
2021/07/10 13:46:10;;;;;;;14.32;12.68;;;;;;;;;;5112740;28;20146;-65
2021/07/10 13:48:55;;;;;;;11.48;10.35;;;;;;;;;;5113971;28;20623;-65
2021/07/10 13:51:46;;;;;;;14.02;12.68;;;;;;;;;;5112420;28;20050;-65
2021/07/10 13:54:35;;;;;;;12.88;11.63;;;;;;;;;;5093623;28;20115;-65
2021/07/10 13:57:24;;;;;;;12.73;11.40;;;;;;;;;;5093403;28;20383;-64
2021/07/10 14:00:12;;;;;;;12.55;11.25;;;;;;;;;;5093183;28;20051;-64
2021/07/10 14:03:01;;;;;;;11.82;10.73;;;;;;;;;;5092884;28;20051;-64
2021/07/10 14:05:46;;;;;;;13.38;11.95;;;;;;;;;;5107763;28;20039;-64
2021/07/10 14:08:32;;;;;;;13.57;12.20;;;;;;;;;;5113566;28;20501;-64
2021/07/10 14:11:17;;;;;;;14.55;13.07;;;;;;;;;;5113267;28;20060;-64
2021/07/10 14:14:02;;;;;;;10.32;9.32;;;;;;;;;;5112182;28;20040;-64
2021/07/10 14:16:48;;;;;;;10.75;8.82;;;;;;;;;;5113145;28;20044;-64
2021/07/10 14:19:33;;;;;;;11.45;9.23;;;;;;;;;;5113048;28;20650;-64
2021/07/10 14:22:18;;;;;;;11.43;10.15;;;;;;;;;;5113202;28;20118;-64
2021/07/10 14:25:04;;;;;;;11.27;9.48;;;;;;;;;;5111982;28;20055;-64
2021/07/10 14:27:50;;;;;;;10.63;9.52;;;;;;;;;;5113171;28;20036;-63
2021/07/10 14:30:37;;;;;;;12.98;11.07;;;;;;;;;;5112809;28;20490;-64
2021/07/10 14:33:22;;;;;;;11.43;10.23;;;;;;;;;;5111669;28;20078;-64
2021/07/10 14:36:07;;;;;;;13.48;10.50;;;;;;;;;;5113060;28;20047;-64
2021/07/10 14:38:53;;;;;;;16.88;10.85;;;;;;;;;;5113369;28;20047;-64
2021/07/10 14:41:38;;;;;;;12.07;10.13;;;;;;;;;;5112705;28;20052;-64
2021/07/10 14:44:23;;;;;;;11.55;10.38;;;;;;;;;;5110497;28;20181;-64
2021/07/10 14:47:09;;;;;;;10.60;9.50;;;;;;;;;;5094340;28;20043;-64
2021/07/10 14:49:54;;;;;;;13.27;10.75;;;;;;;;;;5092191;28;20054;-64
2021/07/10 14:52:40;;;;;;;13.00;11.05;;;;;;;;;;5092425;28;20506;-64
2021/07/10 14:55:25;;;;;;;12.98;9.93;;;;;;;;;;5104604;28;20505;-64
2021/07/10 14:58:11;;;;;;;10.98;9.75;;;;;;;;;;5112682;28;20050;-64
2021/07/10 15:00:56;;;;;;;10.85;9.85;;;;;;;;;;5105166;28;20044;-64
2021/07/10 15:03:41;;;;;;;10.68;9.65;;;;;;;;;;5092368;28;20055;-64
2021/07/10 15:06:27;;;;;;;10.45;9.45;;;;;;;;;;5092193;28;20052;-64
2021/07/10 15:09:13;;;;;;;11.98;10.70;;;;;;;;;;5092140;28;20054;-64
2021/07/10 15:11:58;;;;;;;10.30;9.30;;;;;;;;;;5100740;28;20093;-64
2021/07/10 15:14:43;;;;;;;11.93;9.35;;;;;;;;;;5102771;28;20035;-64
2021/07/10 15:17:30;;;;;;;8.77;7.95;;;;;;;;;;5094633;28;20133;-64
2021/07/10 15:20:16;;;;;;;9.65;8.70;;;;;;;;;;5091980;28;20066;-64
2021/07/10 15:23:01;;;;;;;10.38;9.05;;;;;;;;;;5107199;28;20054;-64
2021/07/10 15:25:50;;;;;;;9.32;8.52;;;;;;;;;;5112215;28;20079;-63
2021/07/10 15:28:35;;;;;;;9.90;8.80;;;;;;;;;;5112143;28;20093;-64
2021/07/10 15:31:21;;;;;;;10.32;8.90;;;;;;;;;;5111231;28;20043;-64
2021/07/10 15:34:07;;;;;;;9.18;8.38;;;;;;;;;;5091918;28;20040;-64
2021/07/10 15:36:52;;;;;;;10.68;9.43;;;;;;;;;;5091844;28;20118;-64
2021/07/10 15:39:37;;;;;;;10.15;8.68;;;;;;;;;;5091563;28;20047;-64
2021/07/10 15:42:23;;;;;;;10.20;9.23;;;;;;;;;;5096380;28;20040;-64
2021/07/10 15:48:01;;;;;;;9.35;8.45;;;;;;;;;;5008863;28;20046;-65
2021/07/10 15:50:48;;;;;;;10.73;9.00;;;;;;;;;;5009288;28;20046;-65
2021/07/10 15:53:33;;;;;;;12.07;10.20;;;;;;;;;;5011042;28;20053;-65
2021/07/10 15:56:19;;;;;;;12.70;10.70;;;;;;;;;;5000263;28;20093;-65
2021/07/10 15:59:05;;;;;;;11.05;9.95;;;;;;;;;;4971104;28;20074;-64
2021/07/10 16:01:50;;;;;;;9.90;9.00;;;;;;;;;;4987719;28;20073;-66
2021/07/10 16:04:35;;;;;;;10.25;9.25;;;;;;;;;;4990662;28;20451;-65
2021/07/10 16:07:20;;;;;;;9.13;8.32;;;;;;;;;;4970170;28;20057;-65
2021/07/10 16:10:09;;;;;;;11.50;9.05;;;;;;;;;;4988919;28;20064;-65